Time;durP1;ratioP1;P1;durP2;ratioP2;P2;SDS_P1;SDS_P2;PMS_P1;PMS_P2;Temp;Humidity;BMP_temperature;BMP_pressure;BME280_temperature;BME280_humidity;BME280_pressure;Samples;Min_cycle;Max_cycle;Signal;HPM_P1;HPM_P2
2023/02/01 00:00:33;;;;;;;14.57;8.90;;;;;;;3.49;79.94;98846.69;5067714;28;20035;-63
2023/02/01 00:02:58;;;;;;;14.82;8.73;;;;;;;3.31;79.93;98852.06;5070203;28;20455;-62
2023/02/01 00:05:24;;;;;;;14.48;8.63;;;;;;;3.09;80.76;98837.09;5062505;28;20063;-63
2023/02/01 00:07:49;;;;;;;13.98;8.38;;;;;;;3.02;80.18;98830.69;5074380;28;20496;-63
2023/02/01 00:10:15;;;;;;;15.85;8.52;;;;;;;3.19;78.83;98851.03;5065562;28;20032;-63
2023/02/01 00:12:41;;;;;;;13.88;8.02;;;;;;;3.24;78.38;98841.31;5058157;28;20107;-63
2023/02/01 00:15:07;;;;;;;14.95;7.82;;;;;;;3.32;77.30;98833.13;5084007;28;20034;-63
2023/02/01 00:17:32;;;;;;;15.73;8.10;;;;;;;3.08;77.85;98781.47;5079495;28;20111;-62
2023/02/01 00:19:58;;;;;;;13.27;7.63;;;;;;;3.36;76.70;98838.91;5078248;28;20032;-62
2023/02/01 00:22:24;;;;;;;12.68;7.50;;;;;;;3.07;77.14;98787.56;5056556;28;20043;-62
2023/02/01 00:24:49;;;;;;;13.02;7.47;;;;;;;3.29;76.63;98827.38;5067185;28;21807;-63
2023/02/01 00:27:17;;;;;;;14.70;7.38;;;;;;;3.38;76.00;98839.66;5046617;28;20028;-63
2023/02/01 00:29:44;;;;;;;13.70;7.18;;;;;;;3.40;75.82;98832.69;5048139;28;20215;-63
2023/02/01 00:32:09;;;;;;;14.95;8.10;;;;;;;3.42;76.39;98821.38;5054009;28;20111;-63
2023/02/01 00:34:36;;;;;;;12.05;7.63;;;;;;;3.44;76.40;98823.84;5062300;28;20104;-63
2023/02/01 00:37:01;;;;;;;13.45;7.35;;;;;;;3.51;74.82;98832.03;5083307;28;20051;-63
2023/02/01 00:39:27;;;;;;;16.85;7.32;;;;;;;3.47;73.86;98829.63;5051634;28;20813;-63
2023/02/01 00:41:52;;;;;;;13.80;7.88;;;;;;;3.49;74.96;98816.69;5057527;28;20028;-62
2023/02/01 00:44:18;;;;;;;12.93;7.45;;;;;;;3.50;74.97;98815.75;5058618;28;20383;-63
2023/02/01 00:46:43;;;;;;;12.50;6.68;;;;;;;3.45;75.31;98817.81;5065577;28;20126;-63
2023/02/01 00:49:09;;;;;;;14.93;8.05;;;;;;;3.39;74.83;98824.13;5069493;28;20506;-64
2023/02/01 00:51:34;;;;;;;12.00;6.43;;;;;;;3.37;74.06;98825.16;5066049;28;20369;-63
2023/02/01 00:54:00;;;;;;;16.17;7.25;;;;;;;3.32;74.62;98817.69;5061158;28;20109;-63
2023/02/01 00:56:29;;;;;;;12.45;7.15;;;;;;;3.43;74.23;98822.19;5075845;28;20070;-63
2023/02/01 00:58:55;;;;;;;14.48;7.43;;;;;;;3.54;73.95;98816.38;5049118;28;20085;-63
2023/02/01 01:01:26;;;;;;;14.35;7.30;;;;;;;3.53;74.17;98825.03;5065600;28;20425;-62
2023/02/01 01:03:55;;;;;;;14.88;7.43;;;;;;;3.25;74.83;98793.31;5083615;28;20470;-64
2023/02/01 01:06:23;;;;;;;13.70;7.57;;;;;;;3.44;75.61;98832.38;5061129;28;20070;-63
2023/02/01 01:08:52;;;;;;;13.10;7.43;;;;;;;3.47;75.20;98832.19;5059416;28;20056;-63
2023/02/01 01:11:20;;;;;;;12.35;7.55;;;;;;;3.50;74.79;98822.66;5053366;28;20085;-63
2023/02/01 01:13:47;;;;;;;14.82;7.93;;;;;;;3.44;75.65;98823.84;5063377;28;20028;-63
2023/02/01 01:16:13;;;;;;;13.32;7.53;;;;;;;3.61;74.87;98839.06;5068786;28;20032;-63
2023/02/01 01:18:38;;;;;;;13.07;7.60;;;;;;;3.46;75.22;98837.44;5056609;28;20046;-63
2023/02/01 01:21:06;;;;;;;12.75;7.28;;;;;;;3.30;74.19;98836.72;5068012;28;20055;-62
2023/02/01 01:23:32;;;;;;;12.63;7.10;;;;;;;3.36;74.34;98838.91;5043925;28;20126;-63
2023/02/01 01:25:57;;;;;;;14.40;8.15;;;;;;;3.41;74.71;98840.31;5070393;28;20036;-63
2023/02/01 01:28:23;;;;;;;15.55;7.90;;;;;;;3.08;75.97;98799.47;5063759;28;21202;-63
2023/02/01 01:30:48;;;;;;;11.68;6.75;;;;;;;3.38;76.07;98824.25;5055123;28;20028;-63
2023/02/01 01:33:14;;;;;;;13.80;7.30;;;;;;;3.13;75.28;98782.03;5062348;28;20031;-63
2023/02/01 01:35:39;;;;;;;11.98;7.18;;;;;;;3.43;75.59;98817.91;5059631;28;20035;-63
2023/02/01 01:38:05;;;;;;;13.32;7.60;;;;;;;3.57;75.54;98821.34;5075506;28;20040;-64
2023/02/01 01:40:31;;;;;;;11.75;7.07;;;;;;;3.25;76.18;98776.16;5041725;28;20095;-63
2023/02/01 01:42:57;;;;;;;12.88;7.35;;;;;;;3.52;77.46;98826.75;5039341;28;20135;-64
2023/02/01 01:45:31;;;;;;;14.57;8.20;;;;;;;3.49;77.54;98821.81;5045254;28;20028;-63
2023/02/01 01:48:07;;;;;;;15.23;7.80;;;;;;;3.43;78.11;98817.91;5077606;28;20107;-63
2023/02/01 01:50:40;;;;;;;13.57;7.75;;;;;;;3.46;79.24;98817.69;5059691;28;20028;-63
2023/02/01 01:53:08;;;;;;;14.93;7.22;;;;;;;3.38;80.01;98807.06;5053437;28;20036;-63
2023/02/01 01:55:38;;;;;;;14.23;8.07;;;;;;;3.46;79.73;98806.59;5062945;28;20032;-62
2023/02/01 01:58:06;;;;;;;12.77;7.80;;;;;;;3.15;79.16;98775.06;5062065;28;20090;-63
2023/02/01 02:00:32;;;;;;;12.60;7.55;;;;;;;2.95;78.34;98762.59;5059811;28;20028;-62
2023/02/01 02:03:30;;;;;;;13.00;7.45;;;;;;;3.02;77.15;98759.56;5059508;28;20040;-63
2023/02/01 02:05:57;;;;;;;12.45;7.45;;;;;;;2.98;78.28;98773.53;5070916;28;20049;-63
2023/02/01 02:08:25;;;;;;;12.25;7.80;;;;;;;3.17;78.95;98822.03;5062046;28;20024;-63
2023/02/01 02:10:59;;;;;;;12.30;7.07;;;;;;;2.97;79.15;98766.72;5062371;28;20105;-63
2023/02/01 02:13:37;;;;;;;12.55;7.38;;;;;;;3.38;76.81;98806.25;5058979;28;20036;-63
2023/02/01 02:16:25;;;;;;;15.68;7.75;;;;;;;3.42;77.89;98810.28;5060554;28;20077;-63
2023/02/01 02:18:57;;;;;;;14.20;7.28;;;;;;;3.37;77.83;98807.97;5061062;28;20482;-63
2023/02/01 02:21:54;;;;;;;11.10;6.78;;;;;;;2.56;77.75;98713.53;5078152;28;20047;-64
2023/02/01 02:24:32;;;;;;;14.27;7.15;;;;;;;3.27;76.57;98809.47;5066062;28;20054;-63
2023/02/01 02:27:24;;;;;;;16.13;7.13;;;;;;;3.30;76.02;98805.88;5084560;28;20036;-63
2023/02/01 02:30:11;;;;;;;11.98;6.72;;;;;;;3.32;76.90;98802.28;5069228;28;20076;-63
2023/02/01 02:32:39;;;;;;;14.23;6.78;;;;;;;3.37;75.99;98804.59;5077634;28;20036;-63
2023/02/01 02:35:26;;;;;;;13.05;7.53;;;;;;;3.34;76.55;98799.63;5076164;28;20029;-63
2023/02/01 02:38:11;;;;;;;11.48;6.35;;;;;;;3.24;76.00;98797.63;5075516;28;20032;-63
2023/02/01 02:40:45;;;;;;;10.82;6.07;;;;;;;3.24;75.71;98781.38;5063760;28;20051;-63
2023/02/01 02:49:05;;;;;;;12.98;6.85;;;;;;;3.17;78.13;98788.63;5062779;28;20072;-63
2023/02/01 02:54:46;;;;;;;15.25;7.57;;;;;;;3.13;78.04;98778.66;5061413;28;20115;-63
2023/02/01 03:05:36;;;;;;;12.68;7.15;;;;;;;2.77;80.52;98720.88;5073062;28;20399;-63
2023/02/01 03:08:03;;;;;;;13.48;6.47;;;;;;;2.74;80.25;98726.19;5063072;28;20483;-62
2023/02/01 03:10:48;;;;;;;11.50;6.45;;;;;;;2.98;79.79;98772.69;5080793;28;20728;-63
2023/02/01 03:13:16;;;;;;;12.40;6.55;;;;;;;2.60;79.77;98719.31;5064167;28;20690;-63
2023/02/01 03:15:55;;;;;;;10.02;5.55;;;;;;;3.02;78.93;98771.59;5077393;28;20101;-63
2023/02/01 03:19:05;;;;;;;11.43;6.20;;;;;;;3.06;79.32;98770.47;5073276;28;20020;-63
2023/02/01 03:22:01;;;;;;;11.27;6.10;;;;;;;2.93;79.30;98767.81;5070908;28;20071;-63
2023/02/01 03:24:54;;;;;;;12.05;6.38;;;;;;;3.08;78.79;98773.78;5062979;28;20074;-63
2023/02/01 03:27:42;;;;;;;10.82;6.32;;;;;;;3.06;79.42;98773.03;5065602;28;20039;-62
2023/02/01 03:30:09;;;;;;;12.40;6.65;;;;;;;2.82;79.31;98741.97;5066980;28;20031;-63
2023/02/01 03:35:33;;;;;;;10.57;5.75;;;;;;;2.69;78.79;98709.31;5067727;28;20039;-63
2023/02/01 03:38:20;;;;;;;9.10;5.07;;;;;;;3.05;78.46;98768.84;5066970;28;20032;-63
2023/02/01 03:41:10;;;;;;;10.10;5.40;;;;;;;2.92;77.87;98749.94;5065463;28;20028;-64
2023/02/01 03:43:50;;;;;;;10.77;5.53;;;;;;;3.19;77.88;98778.25;5070742;28;20040;-64
2023/02/01 03:46:22;;;;;;;10.52;6.00;;;;;;;3.22;78.14;98770.38;5067828;28;20020;-64
2023/02/01 03:48:47;;;;;;;12.05;5.85;;;;;;;2.86;78.13;98717.75;5062855;28;20042;-64
2023/02/01 03:51:13;;;;;;;10.43;5.47;;;;;;;3.06;79.87;98776.44;5063656;28;20032;-64
2023/02/01 03:53:40;;;;;;;10.57;5.93;;;;;;;3.00;80.04;98763.16;5063877;28;20063;-63
2023/02/01 03:56:06;;;;;;;10.02;5.65;;;;;;;3.10;78.97;98765.97;5078495;28;20028;-64
2023/02/01 03:58:31;;;;;;;9.38;5.22;;;;;;;3.12;77.89;98770.13;5082293;28;20028;-64
2023/02/01 04:01:00;;;;;;;10.05;5.75;;;;;;;3.15;78.76;98772.47;5079518;28;20085;-63
2023/02/01 04:03:26;;;;;;;9.82;5.63;;;;;;;3.06;77.63;98775.63;5066565;28;20035;-64
2023/02/01 04:05:52;;;;;;;9.93;5.18;;;;;;;3.05;77.34;98774.78;5060324;28;20035;-64
2023/02/01 04:08:22;;;;;;;10.27;5.18;;;;;;;3.17;77.54;98772.41;5063933;28;20040;-64
2023/02/01 04:10:47;;;;;;;8.90;5.25;;;;;;;3.16;78.38;98773.31;5057148;28;20119;-64
2023/02/01 04:13:13;;;;;;;10.13;5.53;;;;;;;2.72;77.31;98720.31;5070108;28;20198;-64
2023/02/01 04:15:38;;;;;;;11.25;6.07;;;;;;;2.91;79.01;98779.94;5070340;28;20036;-63
2023/02/01 04:18:04;;;;;;;10.73;6.07;;;;;;;2.86;79.67;98782.78;5040886;28;20032;-63
2023/02/01 04:20:30;;;;;;;11.40;6.20;;;;;;;2.77;81.37;98797.91;5075883;28;20016;-63
2023/02/01 04:22:55;;;;;;;11.95;6.10;;;;;;;2.34;82.87;98785.00;5078327;28;20070;-63
2023/02/01 04:25:21;;;;;;;12.85;6.18;;;;;;;2.44;83.62;98784.38;5079124;28;20370;-63
2023/02/01 04:27:46;;;;;;;8.98;5.60;;;;;;;2.57;83.12;98797.31;5079965;28;20119;-63
2023/02/01 04:30:12;;;;;;;11.02;5.63;;;;;;;2.60;82.79;98786.06;5050916;28;20089;-63
2023/02/01 04:32:38;;;;;;;13.73;6.15;;;;;;;2.83;81.68;98798.38;5058711;28;20036;-63
2023/02/01 04:35:04;;;;;;;12.82;6.25;;;;;;;2.86;81.73;98797.38;5068236;28;20034;-63
2023/02/01 04:37:30;;;;;;;11.63;6.75;;;;;;;2.85;81.53;98793.16;5065356;28;20032;-64
2023/02/01 04:39:55;;;;;;;9.73;5.82;;;;;;;2.82;82.27;98791.59;5058677;28;20035;-63
2023/02/01 04:42:23;;;;;;;11.15;6.38;;;;;;;2.89;82.97;98794.63;5064690;28;20121;-64
2023/02/01 04:44:48;;;;;;;12.60;6.55;;;;;;;2.92;82.82;98786.75;5059632;28;20562;-65
2023/02/01 04:47:15;;;;;;;11.55;6.43;;;;;;;2.88;82.33;98774.97;5053727;28;20060;-63
2023/02/01 04:49:40;;;;;;;11.48;5.65;;;;;;;3.03;82.66;98793.78;5060687;28;20029;-63
2023/02/01 04:52:06;;;;;;;10.27;5.78;;;;;;;2.95;82.22;98765.16;5077681;28;20068;-63
2023/02/01 04:54:31;;;;;;;10.68;5.78;;;;;;;3.11;81.39;98778.72;5079991;28;20074;-64
2023/02/01 04:56:57;;;;;;;10.80;5.80;;;;;;;3.10;81.02;98774.50;5078049;28;20024;-64
2023/02/01 04:59:22;;;;;;;13.45;5.85;;;;;;;3.07;80.44;98774.72;5065151;28;20796;-63
2023/02/01 05:01:48;;;;;;;9.57;5.10;;;;;;;2.95;80.13;98772.88;5060911;28;20028;-63
2023/02/01 05:04:13;;;;;;;11.65;5.63;;;;;;;2.98;80.23;98780.41;5072421;28;20021;-63
2023/02/01 05:06:39;;;;;;;10.98;5.68;;;;;;;2.94;81.26;98776.34;5067231;28;20547;-63
2023/02/01 05:09:04;;;;;;;10.70;5.70;;;;;;;3.02;81.59;98792.97;5059250;28;20027;-64
2023/02/01 05:14:13;;;;;;;11.95;6.38;;;;;;;2.99;83.17;98784.59;5073447;28;20454;-64
2023/02/01 05:16:39;;;;;;;12.60;6.13;;;;;;;2.69;84.08;98783.78;5081434;28;20059;-63
2023/02/01 05:19:05;;;;;;;11.45;5.72;;;;;;;2.64;85.08;98787.53;5073273;28;20032;-63
2023/02/01 05:21:30;;;;;;;9.48;5.72;;;;;;;2.46;85.46;98790.28;5064292;28;20406;-64
2023/02/01 05:24:12;;;;;;;10.50;5.85;;;;;;;2.50;85.97;98786.63;5079657;28;20111;-63
2023/02/01 05:26:39;;;;;;;11.90;6.60;;;;;;;2.49;86.10;98794.41;5064716;28;20046;-64
2023/02/01 05:29:07;;;;;;;10.80;6.25;;;;;;;2.23;86.17;98771.06;5061372;28;20038;-63
2023/02/01 05:31:33;;;;;;;12.68;6.18;;;;;;;2.19;86.79;98749.06;5061201;28;20040;-63
2023/02/01 05:33:59;;;;;;;10.80;6.45;;;;;;;2.42;86.24;98782.84;5079726;28;20035;-64
2023/02/01 05:36:24;;;;;;;10.43;6.10;;;;;;;2.42;86.04;98785.41;5061260;28;20036;-63
2023/02/01 05:38:50;;;;;;;12.45;6.50;;;;;;;2.43;86.27;98780.19;5061976;28;20077;-63
2023/02/01 05:41:15;;;;;;;11.98;5.95;;;;;;;2.35;86.44;98784.91;5064816;28;20449;-64
2023/02/01 05:43:41;;;;;;;13.00;7.18;;;;;;;2.22;86.45;98769.41;5066094;28;20617;-63
2023/02/01 05:46:06;;;;;;;13.38;7.35;;;;;;;2.10;86.74;98781.22;5072395;28;20469;-64
2023/02/01 05:48:33;;;;;;;17.65;7.70;;;;;;;2.05;86.44;98783.19;5062962;28;20800;-63
2023/02/01 05:50:59;;;;;;;14.23;7.75;;;;;;;1.95;86.58;98788.94;5047932;28;20038;-63
2023/02/01 05:53:24;;;;;;;14.40;7.78;;;;;;;1.95;86.57;98787.19;5066382;28;20028;-63
2023/02/01 05:55:50;;;;;;;15.45;8.27;;;;;;;1.98;86.13;98796.47;5064272;28;20533;-63
2023/02/01 05:58:17;;;;;;;16.35;9.07;;;;;;;1.93;85.60;98799.28;5057628;28;20028;-63
2023/02/01 06:00:47;;;;;;;16.40;10.20;;;;;;;1.67;86.54;98783.59;5041701;28;20041;-63
2023/02/01 06:03:12;;;;;;;13.98;8.52;;;;;;;1.58;86.44;98793.53;5069103;28;20020;-63
2023/02/01 06:05:38;;;;;;;14.32;9.45;;;;;;;1.57;85.57;98797.00;5083181;28;20037;-63
2023/02/01 06:08:07;;;;;;;16.40;11.07;;;;;;;1.60;84.57;98800.22;5067670;28;20471;-64
2023/02/01 06:10:33;;;;;;;20.48;11.13;;;;;;;1.48;83.82;98758.16;5079876;28;20032;-63
2023/02/01 06:13:17;;;;;;;18.48;10.35;;;;;;;1.75;84.01;98795.16;5083853;28;20769;-63
2023/02/01 06:15:43;;;;;;;17.88;10.77;;;;;;;1.28;84.65;98743.03;5068823;28;20023;-63
2023/02/01 06:18:11;;;;;;;17.88;8.80;;;;;;;1.47;84.51;98792.38;5069613;28;20027;-63
2023/02/01 06:20:36;;;;;;;19.05;9.98;;;;;;;1.21;84.29;98742.53;5062722;28;20391;-62
2023/02/01 06:23:41;;;;;;;14.63;9.25;;;;;;;1.58;84.70;98793.53;5060931;28;20028;-63
2023/02/01 06:26:07;;;;;;;18.23;9.52;;;;;;;1.46;85.33;98790.72;5083791;28;20028;-62
2023/02/01 06:28:34;;;;;;;15.25;9.10;;;;;;;1.20;85.93;98779.28;5064355;28;20513;-63
2023/02/01 06:31:19;;;;;;;19.17;11.23;;;;;;;1.26;85.44;98796.06;5066064;28;20047;-62
2023/02/01 06:33:46;;;;;;;19.88;11.68;;;;;;;1.25;85.43;98794.44;5070332;28;20055;-63
2023/02/01 06:36:13;;;;;;;20.25;10.75;;;;;;;1.14;85.24;98771.94;5085010;28;20046;-63
2023/02/01 06:38:38;;;;;;;17.73;10.57;;;;;;;1.38;84.84;98799.72;5063301;28;20087;-64
2023/02/01 06:41:05;;;;;;;19.15;10.05;;;;;;;1.23;85.54;98804.75;5074064;28;20032;-62
2023/02/01 06:43:32;;;;;;;19.52;11.63;;;;;;;1.16;86.12;98813.66;5049552;28;20068;-63
2023/02/01 06:46:02;;;;;;;19.55;10.70;;;;;;;1.12;86.03;98813.00;5088303;28;20066;-63
2023/02/01 06:48:28;;;;;;;16.55;10.68;;;;;;;1.12;86.06;98830.13;5064726;28;20073;-63
2023/02/01 06:50:54;;;;;;;20.88;10.65;;;;;;;0.65;85.81;98783.00;5060541;28;20032;-63
2023/02/01 06:53:20;;;;;;;22.23;11.32;;;;;;;1.12;85.04;98830.13;5080463;28;20028;-63
2023/02/01 06:55:53;;;;;;;16.65;10.10;;;;;;;1.17;84.05;98843.53;5063681;28;20066;-63
2023/02/01 06:58:18;;;;;;;20.48;11.00;;;;;;;1.06;84.50;98838.94;5073250;28;20024;-63
2023/02/01 07:00:44;;;;;;;16.00;10.82;;;;;;;0.96;84.78;98836.00;5083515;28;20022;-64
2023/02/01 07:03:09;;;;;;;16.92;10.40;;;;;;;0.92;85.62;98852.44;5060027;28;20031;-63
2023/02/01 07:05:35;;;;;;;16.67;9.88;;;;;;;0.81;84.86;98844.50;5063221;28;20035;-64
2023/02/01 07:08:01;;;;;;;19.85;11.27;;;;;;;0.66;86.25;98832.47;5068027;28;20454;-63
2023/02/01 07:10:26;;;;;;;16.55;10.20;;;;;;;0.54;86.81;98780.16;5056757;28;20050;-64
2023/02/01 07:12:52;;;;;;;20.77;10.57;;;;;;;0.84;86.58;98818.75;5070536;28;20096;-64
2023/02/01 07:15:17;;;;;;;22.73;10.75;;;;;;;0.96;86.15;98819.81;5061459;28;20031;-62
2023/02/01 07:17:44;;;;;;;21.48;11.93;;;;;;;0.99;86.36;98818.88;5062265;28;20560;-64
2023/02/01 07:20:10;;;;;;;20.38;11.30;;;;;;;1.04;86.11;98825.41;5050652;28;20042;-64
2023/02/01 07:22:36;;;;;;;22.52;11.55;;;;;;;1.00;86.34;98818.75;5050389;28;20032;-64
2023/02/01 07:25:02;;;;;;;26.08;12.70;;;;;;;0.92;86.44;98818.34;5070235;28;20028;-63
2023/02/01 07:27:27;;;;;;;24.13;13.18;;;;;;;0.89;86.97;98828.72;5089109;28;20047;-64
2023/02/01 07:29:55;;;;;;;20.48;13.05;;;;;;;0.90;86.68;98836.34;5083489;28;20058;-64
2023/02/01 07:32:20;;;;;;;24.17;13.13;;;;;;;0.99;86.20;98840.16;5061328;28;20074;-64
2023/02/01 07:34:46;;;;;;;20.65;12.13;;;;;;;0.88;86.21;98848.41;5067702;28;20028;-64
2023/02/01 07:37:12;;;;;;;22.90;11.80;;;;;;;1.01;85.37;98853.72;5066634;28;20471;-64
2023/02/01 07:39:37;;;;;;;20.92;11.05;;;;;;;1.02;85.60;98851.97;5084284;28;20028;-64
2023/02/01 07:42:03;;;;;;;23.48;12.02;;;;;;;1.01;85.61;98853.72;5046225;28;20418;-64
2023/02/01 07:44:30;;;;;;;19.15;11.85;;;;;;;0.83;86.25;98846.97;5081633;28;20027;-64
2023/02/01 07:46:56;;;;;;;24.52;13.57;;;;;;;0.89;86.85;98850.03;5065956;28;20031;-64
2023/02/01 07:49:22;;;;;;;37.20;17.10;;;;;;;0.71;87.23;98856.09;5061730;28;20024;-64
2023/02/01 07:51:47;;;;;;;36.30;15.90;;;;;;;0.79;87.20;98856.53;5062065;28;20032;-63
2023/02/01 07:54:12;;;;;;;31.67;14.63;;;;;;;0.85;86.11;98847.72;5047806;28;20050;-64
2023/02/01 07:56:38;;;;;;;28.65;15.02;;;;;;;0.78;87.20;98842.06;5067784;28;20098;-64
2023/02/01 07:59:04;;;;;;;34.10;14.60;;;;;;;0.83;87.51;98840.13;5053884;28;20523;-64
2023/02/01 08:01:29;;;;;;;27.60;15.00;;;;;;;0.83;88.72;98845.22;5065288;28;20038;-64
2023/02/01 08:03:57;;;;;;;28.45;13.38;;;;;;;0.88;88.48;98852.69;5078587;28;20028;-64
2023/02/01 08:06:24;;;;;;;20.70;12.77;;;;;;;0.86;89.69;98860.44;5041582;28;20641;-63
2023/02/01 08:08:50;;;;;;;22.45;12.48;;;;;;;0.78;88.90;98870.22;5050010;28;20148;-65
2023/02/01 08:11:16;;;;;;;23.95;12.02;;;;;;;0.65;88.88;98854.66;5062156;28;20103;-64
2023/02/01 08:13:42;;;;;;;24.52;12.43;;;;;;;0.68;89.03;98876.72;5066624;28;20025;-63
2023/02/01 08:16:09;;;;;;;23.35;12.50;;;;;;;0.54;88.47;98833.91;5084985;28;20073;-64
2023/02/01 08:18:36;;;;;;;22.92;12.57;;;;;;;0.90;88.26;98874.75;5065702;28;20035;-64
2023/02/01 08:21:05;;;;;;;22.45;12.98;;;;;;;1.01;86.89;98883.63;5064984;28;20089;-64
2023/02/01 08:23:30;;;;;;;24.27;12.45;;;;;;;0.33;89.03;98821.25;5075947;28;20074;-63
2023/02/01 08:26:18;;;;;;;22.25;12.05;;;;;;;0.94;87.54;98889.03;5078051;28;20017;-64
2023/02/01 08:28:46;;;;;;;25.17;12.00;;;;;;;0.85;88.42;98894.63;5061749;28;20794;-64
2023/02/01 08:31:16;;;;;;;25.60;12.10;;;;;;;0.92;88.23;98872.94;5066160;28;20407;-63
2023/02/01 08:33:43;;;;;;;22.83;11.63;;;;;;;0.94;88.41;98875.41;5049944;28;20032;-65
2023/02/01 08:36:10;;;;;;;20.40;11.65;;;;;;;0.99;87.91;98875.19;5077804;28;20032;-64
2023/02/01 08:38:38;;;;;;;22.65;12.02;;;;;;;0.98;89.06;98861.53;5047687;28;20075;-63
2023/02/01 08:41:15;;;;;;;23.35;13.00;;;;;;;0.88;89.21;98863.75;5073392;28;20031;-64
2023/02/01 08:43:41;;;;;;;25.70;12.07;;;;;;;0.95;89.92;98859.97;5064965;28;20031;-61
2023/02/01 08:46:07;;;;;;;20.10;11.15;;;;;;;0.85;89.68;98822.13;5084014;28;20043;-64
2023/02/01 08:48:34;;;;;;;21.77;11.50;;;;;;;1.17;90.47;98869.13;5062456;28;20039;-64
2023/02/01 08:51:05;;;;;;;22.90;10.60;;;;;;;1.02;90.11;98854.53;5054251;28;20046;-64
2023/02/01 08:53:31;;;;;;;18.85;10.57;;;;;;;1.14;90.23;98874.41;5068000;28;20111;-64
2023/02/01 08:55:56;;;;;;;19.17;10.27;;;;;;;1.14;90.68;98874.41;5042891;28;20147;-63
2023/02/01 08:58:22;;;;;;;18.83;10.75;;;;;;;1.22;90.60;98874.81;5064861;28;20040;-64
2023/02/01 09:00:48;;;;;;;17.65;10.40;;;;;;;1.19;91.56;98861.34;5065620;28;20108;-64
2023/02/01 09:03:14;;;;;;;21.08;11.38;;;;;;;1.26;91.78;98871.22;5065874;28;20097;-63
2023/02/01 09:05:40;;;;;;;21.48;10.93;;;;;;;1.25;91.83;98861.88;5062893;28;20028;-63
2023/02/01 09:08:06;;;;;;;19.13;10.68;;;;;;;1.31;92.54;98871.81;5064085;28;20548;-64
2023/02/01 09:10:32;;;;;;;20.65;10.57;;;;;;;1.05;92.47;98821.91;5082964;28;20016;-64
2023/02/01 09:12:57;;;;;;;18.00;9.25;;;;;;;1.31;93.08;98876.94;5076847;28;20386;-64
2023/02/01 09:15:23;;;;;;;17.73;10.43;;;;;;;1.34;93.14;98876.75;5060444;28;20031;-64
2023/02/01 09:17:48;;;;;;;20.13;9.77;;;;;;;1.47;93.26;98889.75;5068831;28;20555;-64
2023/02/01 09:20:14;;;;;;;15.88;8.90;;;;;;;1.52;93.28;98874.16;5079978;28;20089;-64
2023/02/01 09:22:40;;;;;;;16.35;9.00;;;;;;;1.40;93.58;98861.97;5081908;28;20031;-64
2023/02/01 09:25:06;;;;;;;18.35;10.05;;;;;;;1.45;93.46;98878.75;5081272;28;20534;-64
2023/02/01 09:27:32;;;;;;;18.20;10.43;;;;;;;1.28;93.67;98837.84;5050969;28;20047;-64
2023/02/01 09:29:57;;;;;;;17.90;9.90;;;;;;;1.48;93.86;98878.59;5060099;28;20048;-64
2023/02/01 09:32:23;;;;;;;17.60;10.32;;;;;;;1.39;93.72;98883.38;5049786;28;20067;-64
2023/02/01 09:34:50;;;;;;;17.50;9.38;;;;;;;1.49;94.32;98884.53;5047639;28;20066;-64
2023/02/01 09:37:16;;;;;;;18.17;9.77;;;;;;;1.53;95.21;98875.78;5063271;28;20062;-64
2023/02/01 09:39:42;;;;;;;21.40;11.30;;;;;;;1.60;95.54;98883.97;5063874;28;20028;-64
2023/02/01 09:42:33;;;;;;;21.35;10.75;;;;;;;1.53;96.09;98874.06;5052933;28;20690;-64
2023/02/01 09:45:30;;;;;;;16.90;9.93;;;;;;;1.73;95.13;98882.41;5056414;28;20024;-63
2023/02/01 09:48:00;;;;;;;22.30;11.52;;;;;;;1.69;95.88;98873.25;5030009;28;20535;-64
2023/02/01 09:50:37;;;;;;;21.15;10.95;;;;;;;1.62;96.50;98875.28;5062595;28;20020;-64
2023/02/01 09:53:27;;;;;;;17.65;9.20;;;;;;;1.59;96.26;98880.59;5062346;28;20036;-64
2023/02/01 09:55:58;;;;;;;16.75;9.75;;;;;;;1.60;96.49;98889.13;5064290;28;20505;-64
2023/02/01 09:58:31;;;;;;;15.57;7.95;;;;;;;1.65;96.91;98892.25;5062211;28;20065;-64
2023/02/01 10:00:59;;;;;;;15.60;7.68;;;;;;;1.92;96.15;98889.97;5062952;28;20032;-65
2023/02/01 10:03:29;;;;;;;15.50;8.43;;;;;;;1.98;95.14;98878.53;5058097;28;20024;-64
2023/02/01 10:06:04;;;;;;;15.00;7.55;;;;;;;1.95;94.32;98879.50;5061302;28;20662;-64
2023/02/01 10:08:48;;;;;;;13.40;7.75;;;;;;;2.00;95.77;98874.16;5081847;28;20032;-64
2023/02/01 10:11:56;;;;;;;14.70;7.07;;;;;;;2.05;95.89;98831.94;5078934;28;20031;-64
2023/02/01 10:14:34;;;;;;;12.50;6.82;;;;;;;2.39;94.33;98888.22;5049561;28;20032;-63
2023/02/01 10:17:18;;;;;;;12.98;6.57;;;;;;;2.53;91.80;98880.56;5075339;28;20016;-64
2023/02/01 10:20:02;;;;;;;11.95;6.82;;;;;;;2.25;89.22;98784.63;5069215;28;20043;-63
2023/02/01 10:22:39;;;;;;;9.00;4.97;;;;;;;2.85;87.36;98883.88;5072976;28;20118;-64
2023/02/01 10:25:13;;;;;;;10.30;6.15;;;;;;;2.90;88.05;98883.59;5039909;28;20399;-64
2023/02/01 10:27:40;;;;;;;14.10;5.85;;;;;;;2.94;88.48;98877.38;5030355;28;20024;-63
2023/02/01 10:30:19;;;;;;;10.85;6.65;;;;;;;2.78;86.86;98838.91;5056953;28;20032;-63
2023/02/01 10:32:45;;;;;;;14.85;7.97;;;;;;;3.34;84.14;98893.00;5054982;28;20482;-64
2023/02/01 10:35:18;;;;;;;12.73;6.00;;;;;;;3.53;79.21;98855.88;5054666;28;20042;-63
2023/02/01 10:37:46;;;;;;;8.85;4.63;;;;;;;3.82;75.67;98872.91;5044692;28;20085;-64
2023/02/01 10:40:12;;;;;;;11.73;6.07;;;;;;;3.95;71.73;98882.44;5056626;28;20031;-64
2023/02/01 10:42:39;;;;;;;10.80;5.13;;;;;;;3.99;71.87;98877.00;5074818;28;20032;-64
2023/02/01 10:45:05;;;;;;;6.20;2.60;;;;;;;4.18;61.29;98857.81;5056643;28;20062;-63
2023/02/01 10:47:31;;;;;;;6.03;2.63;;;;;;;4.41;60.01;98867.44;5059273;28;20035;-63
2023/02/01 10:50:15;;;;;;;6.90;2.70;;;;;;;4.61;58.41;98857.59;5061698;28;20545;-62
2023/02/01 10:52:51;;;;;;;5.75;2.22;;;;;;;5.09;57.16;98862.16;5049132;28;20451;-62
2023/02/01 10:55:43;;;;;;;7.05;2.47;;;;;;;5.20;55.47;98847.63;5052799;28;20024;-62
2023/02/01 10:58:20;;;;;;;7.20;2.30;;;;;;;5.31;55.00;98846.91;5072820;28;20043;-62
2023/02/01 11:00:54;;;;;;;8.98;2.22;;;;;;;5.17;56.77;98845.25;5049616;28;20504;-62
2023/02/01 11:03:52;;;;;;;4.63;1.95;;;;;;;5.37;55.94;98837.91;5072825;28;20150;-63
2023/02/01 11:06:21;;;;;;;5.55;1.80;;;;;;;5.45;53.71;98798.69;5078474;28;20032;-63
2023/02/01 11:08:52;;;;;;;4.97;1.90;;;;;;;5.62;54.57;98829.25;5077556;28;20020;-62
2023/02/01 11:11:19;;;;;;;5.63;2.28;;;;;;;5.71;53.26;98827.81;5048165;28;20507;-63
2023/02/01 11:13:52;;;;;;;7.15;2.20;;;;;;;5.76;53.62;98831.69;5058277;28;20008;-63
2023/02/01 11:16:18;;;;;;;6.10;2.05;;;;;;;5.50;54.19;98778.56;5058380;28;20536;-63
2023/02/01 11:18:44;;;;;;;4.38;1.90;;;;;;;5.74;57.12;98820.66;5058156;28;20101;-63
2023/02/01 11:21:11;;;;;;;5.70;2.28;;;;;;;5.92;58.95;98821.13;5058446;28;20115;-63
2023/02/01 11:23:43;;;;;;;5.70;2.60;;;;;;;5.67;59.13;98774.78;5042898;28;20035;-63
2023/02/01 11:26:33;;;;;;;9.45;3.08;;;;;;;5.58;61.96;98769.34;5050123;28;20503;-62
2023/02/01 11:29:03;;;;;;;6.20;2.67;;;;;;;5.85;61.34;98801.03;5069728;28;20032;-63
2023/02/01 11:31:33;;;;;;;6.88;2.97;;;;;;;5.90;59.15;98796.38;5059032;28;20051;-63
2023/02/01 11:34:04;;;;;;;5.63;2.42;;;;;;;6.13;59.85;98786.97;5048878;28;20748;-63
2023/02/01 11:36:31;;;;;;;5.65;2.53;;;;;;;6.04;61.16;98783.31;5043048;28;20676;-63
2023/02/01 11:39:19;;;;;;;7.10;2.50;;;;;;;5.95;61.02;98764.16;5081841;28;20135;-62
2023/02/01 11:42:11;;;;;;;5.80;2.50;;;;;;;6.12;58.42;98731.94;5072642;28;20032;-62
2023/02/01 11:44:39;;;;;;;5.18;2.20;;;;;;;6.49;55.52;98772.28;5055378;28;20141;-62
2023/02/01 11:47:24;;;;;;;5.47;2.15;;;;;;;6.91;53.13;98769.97;5061281;28;20056;-62
2023/02/01 11:49:52;;;;;;;4.63;1.90;;;;;;;6.59;52.85;98703.47;5078916;28;20024;-62
2023/02/01 11:52:33;;;;;;;6.68;2.10;;;;;;;7.12;51.82;98739.88;5049896;28;20111;-62
2023/02/01 11:55:03;;;;;;;5.00;2.00;;;;;;;7.15;54.60;98763.84;5078750;28;20050;-62
2023/02/01 11:57:47;;;;;;;;;;;;;;;7.16;56.09;98762.91;5063752;28;20025;-62
2023/02/01 12:00:42;;;;;;;7.75;2.20;;;;;;;7.18;54.08;98758.44;5066398;28;19919;-65
2023/02/01 12:03:51;;;;;;;6.93;2.67;;;;;;;7.20;55.43;98756.56;5070068;28;20090;-63
2023/02/01 12:06:54;;;;;;;5.15;2.33;;;;;;;7.02;57.48;98744.09;4987553;28;20030;-62
2023/02/01 12:09:44;;;;;;;7.82;2.30;;;;;;;7.17;55.36;98738.69;5069716;28;20039;-63